<?xml version="1.0" encoding="UTF-8"?><gpx xmlns="http://www.topografix.com/GPX/1/1"  creator="TraceDeTrail http://www.tracedetrail.fr" version="1.1" xmlns:xsi="http://www.w3.org/2001/XMLSchema-instance" xsi:schemaLocation="http://www.topografix.com/GPX/1/1 http://www.topografix.com/GPX/1/1/gpx.xsd "><metadata><name>Tour de Chamrousse</name><link href="http://tracedetrail.fr/fr/trace/trace/159120"><text>methode de calcul : astergdem </text></link></metadata><trk><name>Tour de Chamrousse sur TraceDeTrail.fr</name><trkseg><trkpt lat="45.12315" lon="5.87728"><ele>1645</ele><time>2000-01-01T00:01:59.000Z</time></trkpt><trkpt lat="45.12361" lon="5.87738"><ele>1643</ele><time>2000-01-01T00:02:09.000Z</time></trkpt><trkpt lat="45.12374" lon="5.87767"><ele>1643</ele><time>2000-01-01T00:02:19.000Z</time></trkpt><trkpt lat="45.12388" lon="5.878"><ele>1645</ele><time>2000-01-01T00:02:29.000Z</time></trkpt><trkpt lat="45.12387" lon="5.87814"><time>2000-01-01T00:02:39.000Z</time></trkpt><trkpt lat="45.12396" lon="5.87843"><ele>1647</ele><time>2000-01-01T00:02:49.000Z</time></trkpt><trkpt lat="45.12399" lon="5.87853"><time>2000-01-01T00:02:59.000Z</time></trkpt><trkpt lat="45.12407" lon="5.8785"><time>2000-01-01T00:03:09.000Z</time></trkpt><trkpt lat="45.12411" lon="5.87838"><ele>1650</ele><time>2000-01-01T00:03:19.000Z</time></trkpt><trkpt lat="45.12449" lon="5.8784"><ele>1652</ele><time>2000-01-01T00:03:29.000Z</time></trkpt><trkpt lat="45.12478" lon="5.87866"><ele>1664</ele><time>2000-01-01T00:03:39.000Z</time></trkpt><trkpt lat="45.12506" lon="5.8789"><ele>1671</ele><time>2000-01-01T00:03:49.000Z</time></trkpt><trkpt lat="45.12542" lon="5.87923"><ele>1671</ele><time>2000-01-01T00:03:59.000Z</time></trkpt><trkpt lat="45.12561" lon="5.87932"><ele>1671</ele><time>2000-01-01T00:04:09.000Z</time></trkpt><trkpt lat="45.12599" lon="5.87915"><ele>1672</ele><time>2000-01-01T00:04:19.000Z</time></trkpt><trkpt lat="45.12636" lon="5.87898"><ele>1675</ele><time>2000-01-01T00:04:29.000Z</time></trkpt><trkpt lat="45.12644" lon="5.8788"><time>2000-01-01T00:04:39.000Z</time></trkpt><trkpt lat="45.12642" lon="5.87702"><ele>1679</ele><time>2000-01-01T00:04:49.000Z</time></trkpt><trkpt lat="45.12651" lon="5.87653"><ele>1679</ele><time>2000-01-01T00:04:59.000Z</time></trkpt><trkpt lat="45.12652" lon="5.87598"><ele>1682</ele><time>2000-01-01T00:05:09.000Z</time></trkpt><trkpt lat="45.12649" lon="5.87559"><ele>1682</ele><time>2000-01-01T00:05:19.000Z</time></trkpt><trkpt lat="45.12645" lon="5.87506"><ele>1679</ele><time>2000-01-01T00:05:29.000Z</time></trkpt><trkpt lat="45.1265" lon="5.87458"><ele>1679</ele><time>2000-01-01T00:05:39.000Z</time></trkpt><trkpt lat="45.12668" lon="5.87429"><ele>1679</ele><time>2000-01-01T00:05:49.000Z</time></trkpt><trkpt lat="45.12692" lon="5.87391"><ele>1683</ele><time>2000-01-01T00:05:59.000Z</time></trkpt><trkpt lat="45.12718" lon="5.87401"><ele>1686</ele><time>2000-01-01T00:06:09.000Z</time></trkpt><trkpt lat="45.12752" lon="5.87414"><ele>1697</ele><time>2000-01-01T00:06:19.000Z</time></trkpt><trkpt lat="45.12785" lon="5.87458"><ele>1698</ele><time>2000-01-01T00:06:29.000Z</time></trkpt><trkpt lat="45.12815" lon="5.87482"><ele>1699</ele><time>2000-01-01T00:06:39.000Z</time></trkpt><trkpt lat="45.12845" lon="5.87506"><ele>1705</ele><time>2000-01-01T00:06:49.000Z</time></trkpt><trkpt lat="45.12897" lon="5.87547"><ele>1710</ele><time>2000-01-01T00:06:59.000Z</time></trkpt><trkpt lat="45.12912" lon="5.87578"><ele>1711</ele><time>2000-01-01T00:07:09.000Z</time></trkpt><trkpt lat="45.12907" lon="5.87623"><ele>1715</ele><time>2000-01-01T00:07:19.000Z</time></trkpt><trkpt lat="45.12903" lon="5.87635"><time>2000-01-01T00:07:29.000Z</time></trkpt><trkpt lat="45.12906" lon="5.87655"><ele>1719</ele><time>2000-01-01T00:07:39.000Z</time></trkpt><trkpt lat="45.12902" lon="5.87693"><ele>1732</ele><time>2000-01-01T00:07:49.000Z</time></trkpt><trkpt lat="45.12908" lon="5.87728"><ele>1736</ele><time>2000-01-01T00:07:59.000Z</time></trkpt><trkpt lat="45.12914" lon="5.8779"><ele>1742</ele><time>2000-01-01T00:08:09.000Z</time></trkpt><trkpt lat="45.12917" lon="5.87827"><ele>1749</ele><time>2000-01-01T00:08:19.000Z</time></trkpt><trkpt lat="45.12922" lon="5.87871"><ele>1754</ele><time>2000-01-01T00:08:29.000Z</time></trkpt><trkpt lat="45.12922" lon="5.87886"><time>2000-01-01T00:08:39.000Z</time></trkpt><trkpt lat="45.12927" lon="5.87899"><ele>1755</ele><time>2000-01-01T00:08:49.000Z</time></trkpt><trkpt lat="45.12927" lon="5.8792"><time>2000-01-01T00:08:59.000Z</time></trkpt><trkpt lat="45.1292" lon="5.87938"><ele>1756</ele><time>2000-01-01T00:09:09.000Z</time></trkpt><trkpt lat="45.12912" lon="5.87955"><time>2000-01-01T00:09:19.000Z</time></trkpt><trkpt lat="45.12914" lon="5.87977"><ele>1764</ele><time>2000-01-01T00:09:29.000Z</time></trkpt><trkpt lat="45.12918" lon="5.88008"><ele>1766</ele><time>2000-01-01T00:09:39.000Z</time></trkpt><trkpt lat="45.12925" lon="5.88036"><ele>1772</ele><time>2000-01-01T00:09:49.000Z</time></trkpt><trkpt lat="45.12933" lon="5.88054"><time>2000-01-01T00:09:59.000Z</time></trkpt><trkpt lat="45.12941" lon="5.88064"><ele>1774</ele><time>2000-01-01T00:10:09.000Z</time></trkpt><trkpt lat="45.12948" lon="5.88072"><time>2000-01-01T00:10:19.000Z</time></trkpt><trkpt lat="45.12966" lon="5.88084"><ele>1775</ele><time>2000-01-01T00:10:29.000Z</time></trkpt><trkpt lat="45.1298" lon="5.88098"><time>2000-01-01T00:10:39.000Z</time></trkpt><trkpt lat="45.12987" lon="5.88103"><ele>1772</ele><time>2000-01-01T00:10:49.000Z</time></trkpt><trkpt lat="45.12996" lon="5.88113"><time>2000-01-01T00:10:59.000Z</time></trkpt><trkpt lat="45.13003" lon="5.88118"><ele>1770</ele><time>2000-01-01T00:11:09.000Z</time></trkpt><trkpt lat="45.13006" lon="5.88121"><time>2000-01-01T00:11:19.000Z</time></trkpt><trkpt lat="45.13011" lon="5.88127"><time>2000-01-01T00:11:29.000Z</time></trkpt><trkpt lat="45.13021" lon="5.88137"><ele>1770</ele><time>2000-01-01T00:11:39.000Z</time></trkpt><trkpt lat="45.13035" lon="5.88157"><ele>1770</ele><time>2000-01-01T00:11:49.000Z</time></trkpt><trkpt lat="45.13039" lon="5.88166"><time>2000-01-01T00:11:59.000Z</time></trkpt><trkpt lat="45.13042" lon="5.88168"><time>2000-01-01T00:12:09.000Z</time></trkpt><trkpt lat="45.13053" lon="5.88186"><ele>1776</ele><time>2000-01-01T00:12:19.000Z</time></trkpt><trkpt lat="45.13056" lon="5.88192"><time>2000-01-01T00:12:29.000Z</time></trkpt><trkpt lat="45.1306" lon="5.88196"><time>2000-01-01T00:12:39.000Z</time></trkpt><trkpt lat="45.13063" lon="5.88201"><time>2000-01-01T00:12:49.000Z</time></trkpt><trkpt lat="45.13068" lon="5.88212"><ele>1779</ele><time>2000-01-01T00:12:59.000Z</time></trkpt><trkpt lat="45.13072" lon="5.8822"><time>2000-01-01T00:13:09.000Z</time></trkpt><trkpt lat="45.1308" lon="5.8823"><time>2000-01-01T00:13:19.000Z</time></trkpt><trkpt lat="45.13082" lon="5.88232"><ele>1782</ele><time>2000-01-01T00:13:29.000Z</time></trkpt><trkpt lat="45.13089" lon="5.8824"><time>2000-01-01T00:13:39.000Z</time></trkpt><trkpt lat="45.13097" lon="5.88254"><ele>1786</ele><time>2000-01-01T00:13:49.000Z</time></trkpt><trkpt lat="45.13102" lon="5.88261"><time>2000-01-01T00:13:59.000Z</time></trkpt><trkpt lat="45.13107" lon="5.88268"><time>2000-01-01T00:14:09.000Z</time></trkpt><trkpt lat="45.13109" lon="5.88272"><time>2000-01-01T00:14:19.000Z</time></trkpt><trkpt lat="45.13112" lon="5.88276"><ele>1787</ele><time>2000-01-01T00:14:29.000Z</time></trkpt><trkpt lat="45.13116" lon="5.88282"><time>2000-01-01T00:14:39.000Z</time></trkpt><trkpt lat="45.13119" lon="5.88287"><time>2000-01-01T00:14:49.000Z</time></trkpt><trkpt lat="45.13122" lon="5.88292"><time>2000-01-01T00:14:59.000Z</time></trkpt><trkpt lat="45.13127" lon="5.88296"><ele>1787</ele><time>2000-01-01T00:15:09.000Z</time></trkpt><trkpt lat="45.1313" lon="5.88301"><time>2000-01-01T00:15:19.000Z</time></trkpt><trkpt lat="45.13131" lon="5.88303"><time>2000-01-01T00:15:29.000Z</time></trkpt><trkpt lat="45.13142" lon="5.88315"><ele>1788</ele><time>2000-01-01T00:15:39.000Z</time></trkpt><trkpt lat="45.13148" lon="5.88325"><time>2000-01-01T00:15:49.000Z</time></trkpt><trkpt lat="45.13155" lon="5.88343"><ele>1789</ele><time>2000-01-01T00:15:59.000Z</time></trkpt><trkpt lat="45.13158" lon="5.8835"><time>2000-01-01T00:16:09.000Z</time></trkpt><trkpt lat="45.13165" lon="5.8836"><time>2000-01-01T00:16:19.000Z</time></trkpt><trkpt lat="45.13178" lon="5.88372"><ele>1791</ele><time>2000-01-01T00:16:29.000Z</time></trkpt><trkpt lat="45.13186" lon="5.88382"><time>2000-01-01T00:16:39.000Z</time></trkpt><trkpt lat="45.13193" lon="5.88397"><ele>1790</ele><time>2000-01-01T00:16:49.000Z</time></trkpt><trkpt lat="45.13198" lon="5.88409"><time>2000-01-01T00:16:59.000Z</time></trkpt><trkpt lat="45.13198" lon="5.88418"><time>2000-01-01T00:17:09.000Z</time></trkpt><trkpt lat="45.13197" lon="5.88423"><ele>1789</ele><time>2000-01-01T00:17:19.000Z</time></trkpt><trkpt lat="45.13194" lon="5.88428"><time>2000-01-01T00:17:29.000Z</time></trkpt><trkpt lat="45.13209" lon="5.88429"><time>2000-01-01T00:17:39.000Z</time></trkpt><trkpt lat="45.13263" lon="5.88444"><ele>1782</ele><time>2000-01-01T00:17:49.000Z</time></trkpt><trkpt lat="45.13291" lon="5.88451"><ele>1775</ele><time>2000-01-01T00:17:59.000Z</time></trkpt><trkpt lat="45.13302" lon="5.88455"><time>2000-01-01T00:18:09.000Z</time></trkpt><trkpt lat="45.13319" lon="5.88457"><ele>1775</ele><time>2000-01-01T00:18:19.000Z</time></trkpt><trkpt lat="45.13332" lon="5.88444"><time>2000-01-01T00:18:29.000Z</time></trkpt><trkpt lat="45.13348" lon="5.88428"><ele>1766</ele><time>2000-01-01T00:18:39.000Z</time></trkpt><trkpt lat="45.13351" lon="5.88425"><time>2000-01-01T00:18:49.000Z</time></trkpt><trkpt lat="45.13363" lon="5.88423"><time>2000-01-01T00:18:59.000Z</time></trkpt><trkpt lat="45.13372" lon="5.88422"><ele>1755</ele><time>2000-01-01T00:19:09.000Z</time></trkpt><trkpt lat="45.13384" lon="5.88421"><time>2000-01-01T00:19:19.000Z</time></trkpt><trkpt lat="45.13394" lon="5.8842"><ele>1752</ele><time>2000-01-01T00:19:29.000Z</time></trkpt><trkpt lat="45.134" lon="5.8842"><time>2000-01-01T00:19:39.000Z</time></trkpt><trkpt lat="45.1343" lon="5.88407"><ele>1746</ele><time>2000-01-01T00:19:49.000Z</time></trkpt><trkpt lat="45.13434" lon="5.88423"><time>2000-01-01T00:19:59.000Z</time></trkpt><trkpt lat="45.13435" lon="5.88432"><time>2000-01-01T00:20:09.000Z</time></trkpt><trkpt lat="45.1342" lon="5.8844"><ele>1746</ele><time>2000-01-01T00:20:19.000Z</time></trkpt><trkpt lat="45.13403" lon="5.88451"><time>2000-01-01T00:20:29.000Z</time></trkpt><trkpt lat="45.13387" lon="5.8846"><ele>1747</ele><time>2000-01-01T00:20:39.000Z</time></trkpt><trkpt lat="45.13348" lon="5.88496"><ele>1764</ele><time>2000-01-01T00:20:49.000Z</time></trkpt><trkpt lat="45.13341" lon="5.88501"><time>2000-01-01T00:20:59.000Z</time></trkpt><trkpt lat="45.13338" lon="5.88503"><time>2000-01-01T00:21:09.000Z</time></trkpt><trkpt lat="45.13314" lon="5.88513"><ele>1754</ele><time>2000-01-01T00:21:19.000Z</time></trkpt><trkpt lat="45.13311" lon="5.88514"><time>2000-01-01T00:21:29.000Z</time></trkpt><trkpt lat="45.13302" lon="5.88516"><time>2000-01-01T00:21:39.000Z</time></trkpt><trkpt lat="45.13284" lon="5.88521"><ele>1750</ele><time>2000-01-01T00:21:49.000Z</time></trkpt><trkpt lat="45.13268" lon="5.88523"><time>2000-01-01T00:21:59.000Z</time></trkpt><trkpt lat="45.13256" lon="5.88526"><ele>1747</ele><time>2000-01-01T00:22:09.000Z</time></trkpt><trkpt lat="45.1325" lon="5.88529"><time>2000-01-01T00:22:19.000Z</time></trkpt><trkpt lat="45.13243" lon="5.88525"><time>2000-01-01T00:22:29.000Z</time></trkpt><trkpt lat="45.13241" lon="5.88524"><time>2000-01-01T00:22:39.000Z</time></trkpt><trkpt lat="45.13234" lon="5.88524"><ele>1742</ele><time>2000-01-01T00:22:49.000Z</time></trkpt><trkpt lat="45.13223" lon="5.88527"><time>2000-01-01T00:22:59.000Z</time></trkpt><trkpt lat="45.13215" lon="5.8853"><ele>1742</ele><time>2000-01-01T00:23:09.000Z</time></trkpt><trkpt lat="45.13206" lon="5.88532"><time>2000-01-01T00:23:19.000Z</time></trkpt><trkpt lat="45.13197" lon="5.88529"><time>2000-01-01T00:23:29.000Z</time></trkpt><trkpt lat="45.1319" lon="5.8853"><ele>1754</ele><time>2000-01-01T00:23:39.000Z</time></trkpt><trkpt lat="45.13176" lon="5.88545"><time>2000-01-01T00:23:49.000Z</time></trkpt><trkpt lat="45.13169" lon="5.88548"><ele>1754</ele><time>2000-01-01T00:23:59.000Z</time></trkpt><trkpt lat="45.13152" lon="5.88548"><time>2000-01-01T00:24:09.000Z</time></trkpt><trkpt lat="45.13144" lon="5.88552"><ele>1756</ele><time>2000-01-01T00:24:19.000Z</time></trkpt><trkpt lat="45.13127" lon="5.88547"><time>2000-01-01T00:24:29.000Z</time></trkpt><trkpt lat="45.13112" lon="5.88551"><ele>1756</ele><time>2000-01-01T00:24:39.000Z</time></trkpt><trkpt lat="45.13103" lon="5.88565"><time>2000-01-01T00:24:49.000Z</time></trkpt><trkpt lat="45.13102" lon="5.8859"><ele>1756</ele><time>2000-01-01T00:24:59.000Z</time></trkpt><trkpt lat="45.13094" lon="5.88607"><time>2000-01-01T00:25:09.000Z</time></trkpt><trkpt lat="45.13091" lon="5.88632"><ele>1763</ele><time>2000-01-01T00:25:19.000Z</time></trkpt><trkpt lat="45.13093" lon="5.88682"><ele>1763</ele><time>2000-01-01T00:25:29.000Z</time></trkpt><trkpt lat="45.13101" lon="5.88715"><ele>1749</ele><time>2000-01-01T00:25:39.000Z</time></trkpt><trkpt lat="45.13101" lon="5.88725"><time>2000-01-01T00:25:49.000Z</time></trkpt><trkpt lat="45.13105" lon="5.88744"><ele>1754</ele><time>2000-01-01T00:25:59.000Z</time></trkpt><trkpt lat="45.13106" lon="5.88749"><time>2000-01-01T00:26:09.000Z</time></trkpt><trkpt lat="45.13107" lon="5.88766"><time>2000-01-01T00:26:19.000Z</time></trkpt><trkpt lat="45.13096" lon="5.88786"><ele>1759</ele><time>2000-01-01T00:26:29.000Z</time></trkpt><trkpt lat="45.13085" lon="5.88793"><time>2000-01-01T00:26:39.000Z</time></trkpt><trkpt lat="45.1308" lon="5.88797"><time>2000-01-01T00:26:49.000Z</time></trkpt><trkpt lat="45.1306" lon="5.88819"><ele>1754</ele><time>2000-01-01T00:26:59.000Z</time></trkpt><trkpt lat="45.13055" lon="5.88878"><ele>1753</ele><time>2000-01-01T00:27:09.000Z</time></trkpt><trkpt lat="45.13044" lon="5.88873"><time>2000-01-01T00:27:19.000Z</time></trkpt><trkpt lat="45.13033" lon="5.88862"><ele>1753</ele><time>2000-01-01T00:27:29.000Z</time></trkpt><trkpt lat="45.13018" lon="5.88847"><time>2000-01-01T00:27:39.000Z</time></trkpt><trkpt lat="45.13011" lon="5.88842"><ele>1764</ele><time>2000-01-01T00:27:49.000Z</time></trkpt><trkpt lat="45.12992" lon="5.88846"><ele>1764</ele><time>2000-01-01T00:27:59.000Z</time></trkpt><trkpt lat="45.12975" lon="5.88849"><time>2000-01-01T00:28:09.000Z</time></trkpt><trkpt lat="45.12958" lon="5.88853"><ele>1776</ele><time>2000-01-01T00:28:19.000Z</time></trkpt><trkpt lat="45.12956" lon="5.8885"><time>2000-01-01T00:28:29.000Z</time></trkpt><trkpt lat="45.1295" lon="5.88839"><time>2000-01-01T00:28:39.000Z</time></trkpt><trkpt lat="45.12953" lon="5.88828"><ele>1790</ele><time>2000-01-01T00:28:49.000Z</time></trkpt><trkpt lat="45.1296" lon="5.88809"><time>2000-01-01T00:28:59.000Z</time></trkpt><trkpt lat="45.1296" lon="5.88804"><time>2000-01-01T00:29:09.000Z</time></trkpt><trkpt lat="45.12959" lon="5.88799"><ele>1794</ele><time>2000-01-01T00:29:19.000Z</time></trkpt><trkpt lat="45.12957" lon="5.88797"><time>2000-01-01T00:29:29.000Z</time></trkpt><trkpt lat="45.12964" lon="5.88778"><time>2000-01-01T00:29:39.000Z</time></trkpt><trkpt lat="45.12971" lon="5.88763"><ele>1799</ele><time>2000-01-01T00:29:49.000Z</time></trkpt><trkpt lat="45.12984" lon="5.88742"><ele>1799</ele><time>2000-01-01T00:29:59.000Z</time></trkpt><trkpt lat="45.12991" lon="5.88731"><time>2000-01-01T00:30:09.000Z</time></trkpt><trkpt lat="45.12996" lon="5.88725"><time>2000-01-01T00:30:19.000Z</time></trkpt><trkpt lat="45.13004" lon="5.88718"><ele>1794</ele><time>2000-01-01T00:30:29.000Z</time></trkpt><trkpt lat="45.13007" lon="5.88713"><time>2000-01-01T00:30:39.000Z</time></trkpt><trkpt lat="45.13009" lon="5.88706"><time>2000-01-01T00:30:49.000Z</time></trkpt><trkpt lat="45.13008" lon="5.88696"><time>2000-01-01T00:30:59.000Z</time></trkpt><trkpt lat="45.13005" lon="5.88678"><ele>1792</ele><time>2000-01-01T00:31:09.000Z</time></trkpt><trkpt lat="45.13001" lon="5.88658"><time>2000-01-01T00:31:19.000Z</time></trkpt><trkpt lat="45.13001" lon="5.88648"><ele>1792</ele><time>2000-01-01T00:31:29.000Z</time></trkpt><trkpt lat="45.13001" lon="5.88634"><time>2000-01-01T00:31:39.000Z</time></trkpt><trkpt lat="45.12998" lon="5.88623"><time>2000-01-01T00:31:49.000Z</time></trkpt><trkpt lat="45.12995" lon="5.88608"><ele>1792</ele><time>2000-01-01T00:31:59.000Z</time></trkpt><trkpt lat="45.12992" lon="5.8859"><time>2000-01-01T00:32:09.000Z</time></trkpt><trkpt lat="45.12988" lon="5.88578"><ele>1812</ele><time>2000-01-01T00:32:19.000Z</time></trkpt><trkpt lat="45.12985" lon="5.8857"><time>2000-01-01T00:32:29.000Z</time></trkpt><trkpt lat="45.1298" lon="5.88552"><ele>1812</ele><time>2000-01-01T00:32:39.000Z</time></trkpt><trkpt lat="45.12974" lon="5.88539"><time>2000-01-01T00:32:49.000Z</time></trkpt><trkpt lat="45.12968" lon="5.88526"><ele>1813</ele><time>2000-01-01T00:32:59.000Z</time></trkpt><trkpt lat="45.12964" lon="5.88518"><time>2000-01-01T00:33:09.000Z</time></trkpt><trkpt lat="45.12959" lon="5.88508"><time>2000-01-01T00:33:19.000Z</time></trkpt><trkpt lat="45.12955" lon="5.88495"><ele>1810</ele><time>2000-01-01T00:33:29.000Z</time></trkpt><trkpt lat="45.12952" lon="5.8849"><time>2000-01-01T00:33:39.000Z</time></trkpt><trkpt lat="45.12931" lon="5.88467"><ele>1808</ele><time>2000-01-01T00:33:49.000Z</time></trkpt><trkpt lat="45.1292" lon="5.88467"><time>2000-01-01T00:33:59.000Z</time></trkpt><trkpt lat="45.12912" lon="5.88474"><ele>1808</ele><time>2000-01-01T00:34:09.000Z</time></trkpt><trkpt lat="45.12901" lon="5.88488"><time>2000-01-01T00:34:19.000Z</time></trkpt><trkpt lat="45.12895" lon="5.88492"><ele>1808</ele><time>2000-01-01T00:34:29.000Z</time></trkpt><trkpt lat="45.12884" lon="5.88497"><time>2000-01-01T00:34:39.000Z</time></trkpt><trkpt lat="45.12875" lon="5.88502"><ele>1801</ele><time>2000-01-01T00:34:49.000Z</time></trkpt><trkpt lat="45.12863" lon="5.88505"><time>2000-01-01T00:34:59.000Z</time></trkpt><trkpt lat="45.12855" lon="5.88509"><ele>1801</ele><time>2000-01-01T00:35:09.000Z</time></trkpt><trkpt lat="45.12851" lon="5.88508"><time>2000-01-01T00:35:19.000Z</time></trkpt><trkpt lat="45.12842" lon="5.88511"><time>2000-01-01T00:35:29.000Z</time></trkpt><trkpt lat="45.12834" lon="5.8851"><ele>1801</ele><time>2000-01-01T00:35:39.000Z</time></trkpt><trkpt lat="45.12818" lon="5.88519"><time>2000-01-01T00:35:49.000Z</time></trkpt><trkpt lat="45.12807" lon="5.88526"><ele>1805</ele><time>2000-01-01T00:35:59.000Z</time></trkpt><trkpt lat="45.12803" lon="5.88529"><time>2000-01-01T00:36:09.000Z</time></trkpt><trkpt lat="45.128" lon="5.88532"><time>2000-01-01T00:36:19.000Z</time></trkpt><trkpt lat="45.12793" lon="5.88535"><time>2000-01-01T00:36:29.000Z</time></trkpt><trkpt lat="45.12777" lon="5.88541"><ele>1809</ele><time>2000-01-01T00:36:39.000Z</time></trkpt><trkpt lat="45.12774" lon="5.88542"><time>2000-01-01T00:36:49.000Z</time></trkpt><trkpt lat="45.12767" lon="5.88544"><time>2000-01-01T00:36:59.000Z</time></trkpt><trkpt lat="45.12751" lon="5.88549"><ele>1810</ele><time>2000-01-01T00:37:09.000Z</time></trkpt><trkpt lat="45.12742" lon="5.88547"><time>2000-01-01T00:37:19.000Z</time></trkpt><trkpt lat="45.1274" lon="5.88546"><time>2000-01-01T00:37:29.000Z</time></trkpt><trkpt lat="45.12736" lon="5.88556"><ele>1812</ele><time>2000-01-01T00:37:39.000Z</time></trkpt><trkpt lat="45.12727" lon="5.88579"><time>2000-01-01T00:37:49.000Z</time></trkpt><trkpt lat="45.12722" lon="5.8861"><ele>1820</ele><time>2000-01-01T00:37:59.000Z</time></trkpt><trkpt lat="45.12719" lon="5.88633"><time>2000-01-01T00:38:09.000Z</time></trkpt><trkpt lat="45.12719" lon="5.88651"><ele>1823</ele><time>2000-01-01T00:38:19.000Z</time></trkpt><trkpt lat="45.12721" lon="5.88668"><time>2000-01-01T00:38:29.000Z</time></trkpt><trkpt lat="45.12734" lon="5.88725"><ele>1826</ele><time>2000-01-01T00:38:39.000Z</time></trkpt><trkpt lat="45.12737" lon="5.88739"><time>2000-01-01T00:38:49.000Z</time></trkpt><trkpt lat="45.12738" lon="5.88744"><time>2000-01-01T00:38:59.000Z</time></trkpt><trkpt lat="45.12743" lon="5.88768"><ele>1829</ele><time>2000-01-01T00:39:09.000Z</time></trkpt><trkpt lat="45.12751" lon="5.88794"><ele>1828</ele><time>2000-01-01T00:39:19.000Z</time></trkpt><trkpt lat="45.1276" lon="5.88823"><ele>1828</ele><time>2000-01-01T00:39:29.000Z</time></trkpt><trkpt lat="45.12765" lon="5.88843"><time>2000-01-01T00:39:39.000Z</time></trkpt><trkpt lat="45.12768" lon="5.88854"><ele>1828</ele><time>2000-01-01T00:39:49.000Z</time></trkpt><trkpt lat="45.12769" lon="5.88867"><time>2000-01-01T00:39:59.000Z</time></trkpt><trkpt lat="45.12767" lon="5.88872"><time>2000-01-01T00:40:09.000Z</time></trkpt><trkpt lat="45.12767" lon="5.88872"><time>2000-01-01T00:40:19.000Z</time></trkpt><trkpt lat="45.12764" lon="5.88875"><time>2000-01-01T00:40:29.000Z</time></trkpt><trkpt lat="45.1276" lon="5.88877"><ele>1828</ele><time>2000-01-01T00:40:39.000Z</time></trkpt><trkpt lat="45.12741" lon="5.88891"><ele>1832</ele><time>2000-01-01T00:40:49.000Z</time></trkpt><trkpt lat="45.12737" lon="5.88901"><time>2000-01-01T00:40:59.000Z</time></trkpt><trkpt lat="45.12736" lon="5.8892"><ele>1836</ele><time>2000-01-01T00:41:09.000Z</time></trkpt><trkpt lat="45.12727" lon="5.88929"><time>2000-01-01T00:41:19.000Z</time></trkpt><trkpt lat="45.12723" lon="5.88933"><time>2000-01-01T00:41:29.000Z</time></trkpt><trkpt lat="45.12721" lon="5.88935"><time>2000-01-01T00:41:39.000Z</time></trkpt><trkpt lat="45.12716" lon="5.88942"><ele>1842</ele><time>2000-01-01T00:41:49.000Z</time></trkpt><trkpt lat="45.12706" lon="5.88964"><time>2000-01-01T00:41:59.000Z</time></trkpt><trkpt lat="45.12701" lon="5.88968"><ele>1852</ele><time>2000-01-01T00:42:09.000Z</time></trkpt><trkpt lat="45.12698" lon="5.88969"><time>2000-01-01T00:42:19.000Z</time></trkpt><trkpt lat="45.12694" lon="5.8897"><time>2000-01-01T00:42:29.000Z</time></trkpt><trkpt lat="45.12692" lon="5.88969"><time>2000-01-01T00:42:39.000Z</time></trkpt><trkpt lat="45.12669" lon="5.88954"><ele>1859</ele><time>2000-01-01T00:42:49.000Z</time></trkpt><trkpt lat="45.1264" lon="5.88943"><ele>1863</ele><time>2000-01-01T00:42:59.000Z</time></trkpt><trkpt lat="45.12622" lon="5.8894"><time>2000-01-01T00:43:09.000Z</time></trkpt><trkpt lat="45.12614" lon="5.88933"><ele>1862</ele><time>2000-01-01T00:43:19.000Z</time></trkpt><trkpt lat="45.12608" lon="5.88921"><time>2000-01-01T00:43:29.000Z</time></trkpt><trkpt lat="45.12607" lon="5.88913"><time>2000-01-01T00:43:39.000Z</time></trkpt><trkpt lat="45.12606" lon="5.88895"><ele>1862</ele><time>2000-01-01T00:43:49.000Z</time></trkpt><trkpt lat="45.12602" lon="5.88882"><time>2000-01-01T00:43:59.000Z</time></trkpt><trkpt lat="45.12586" lon="5.88857"><ele>1861</ele><time>2000-01-01T00:44:09.000Z</time></trkpt><trkpt lat="45.12579" lon="5.88848"><time>2000-01-01T00:44:19.000Z</time></trkpt><trkpt lat="45.12556" lon="5.88823"><ele>1861</ele><time>2000-01-01T00:44:29.000Z</time></trkpt><trkpt lat="45.12537" lon="5.88809"><ele>1858</ele><time>2000-01-01T00:44:39.000Z</time></trkpt><trkpt lat="45.12532" lon="5.88805"><time>2000-01-01T00:44:49.000Z</time></trkpt><trkpt lat="45.12524" lon="5.888"><time>2000-01-01T00:44:59.000Z</time></trkpt><trkpt lat="45.12509" lon="5.88791"><ele>1837</ele><time>2000-01-01T00:45:09.000Z</time></trkpt><trkpt lat="45.12504" lon="5.88789"><time>2000-01-01T00:45:19.000Z</time></trkpt><trkpt lat="45.12483" lon="5.88774"><ele>1832</ele><time>2000-01-01T00:45:29.000Z</time></trkpt><trkpt lat="45.12477" lon="5.8877"><time>2000-01-01T00:45:39.000Z</time></trkpt><trkpt lat="45.12473" lon="5.88768"><time>2000-01-01T00:45:49.000Z</time></trkpt><trkpt lat="45.12457" lon="5.88754"><ele>1823</ele><time>2000-01-01T00:45:59.000Z</time></trkpt><trkpt lat="45.1245" lon="5.88749"><time>2000-01-01T00:46:09.000Z</time></trkpt><trkpt lat="45.12441" lon="5.88741"><time>2000-01-01T00:46:19.000Z</time></trkpt><trkpt lat="45.12432" lon="5.88732"><ele>1818</ele><time>2000-01-01T00:46:29.000Z</time></trkpt><trkpt lat="45.12428" lon="5.88728"><time>2000-01-01T00:46:39.000Z</time></trkpt><trkpt lat="45.12423" lon="5.88721"><time>2000-01-01T00:46:49.000Z</time></trkpt><trkpt lat="45.12414" lon="5.88703"><ele>1814</ele><time>2000-01-01T00:46:59.000Z</time></trkpt><trkpt lat="45.12414" lon="5.88684"><time>2000-01-01T00:47:09.000Z</time></trkpt><trkpt lat="45.12426" lon="5.88586"><ele>1799</ele><time>2000-01-01T00:47:19.000Z</time></trkpt><trkpt lat="45.12417" lon="5.88575"><time>2000-01-01T00:47:29.000Z</time></trkpt><trkpt lat="45.12414" lon="5.88572"><time>2000-01-01T00:47:39.000Z</time></trkpt><trkpt lat="45.12399" lon="5.88557"><ele>1792</ele><time>2000-01-01T00:47:49.000Z</time></trkpt><trkpt lat="45.12394" lon="5.88553"><time>2000-01-01T00:47:59.000Z</time></trkpt><trkpt lat="45.1239" lon="5.88549"><time>2000-01-01T00:48:09.000Z</time></trkpt><trkpt lat="45.12381" lon="5.88545"><ele>1793</ele><time>2000-01-01T00:48:19.000Z</time></trkpt><trkpt lat="45.1237" lon="5.88548"><time>2000-01-01T00:48:29.000Z</time></trkpt><trkpt lat="45.12361" lon="5.88554"><ele>1794</ele><time>2000-01-01T00:48:39.000Z</time></trkpt><trkpt lat="45.12356" lon="5.88557"><time>2000-01-01T00:48:49.000Z</time></trkpt><trkpt lat="45.12346" lon="5.88558"><time>2000-01-01T00:48:59.000Z</time></trkpt><trkpt lat="45.12312" lon="5.88555"><ele>1812</ele><time>2000-01-01T00:49:09.000Z</time></trkpt><trkpt lat="45.12302" lon="5.88549"><time>2000-01-01T00:49:19.000Z</time></trkpt><trkpt lat="45.12294" lon="5.88542"><ele>1817</ele><time>2000-01-01T00:49:29.000Z</time></trkpt><trkpt lat="45.12285" lon="5.88534"><time>2000-01-01T00:49:39.000Z</time></trkpt><trkpt lat="45.12282" lon="5.88532"><time>2000-01-01T00:49:49.000Z</time></trkpt><trkpt lat="45.12277" lon="5.88525"><ele>1817</ele><time>2000-01-01T00:49:59.000Z</time></trkpt><trkpt lat="45.12276" lon="5.88523"><time>2000-01-01T00:50:09.000Z</time></trkpt><trkpt lat="45.12269" lon="5.88514"><time>2000-01-01T00:50:19.000Z</time></trkpt><trkpt lat="45.12264" lon="5.88504"><ele>1818</ele><time>2000-01-01T00:50:29.000Z</time></trkpt><trkpt lat="45.12258" lon="5.88492"><time>2000-01-01T00:50:39.000Z</time></trkpt><trkpt lat="45.12256" lon="5.88488"><time>2000-01-01T00:50:49.000Z</time></trkpt><trkpt lat="45.12254" lon="5.88485"><time>2000-01-01T00:50:59.000Z</time></trkpt><trkpt lat="45.12245" lon="5.88471"><ele>1817</ele><time>2000-01-01T00:51:09.000Z</time></trkpt><trkpt lat="45.12242" lon="5.88466"><time>2000-01-01T00:51:19.000Z</time></trkpt><trkpt lat="45.12236" lon="5.8846"><time>2000-01-01T00:51:29.000Z</time></trkpt><trkpt lat="45.12228" lon="5.8845"><ele>1816</ele><time>2000-01-01T00:51:39.000Z</time></trkpt><trkpt lat="45.12226" lon="5.88448"><time>2000-01-01T00:51:49.000Z</time></trkpt><trkpt lat="45.12224" lon="5.88445"><time>2000-01-01T00:51:59.000Z</time></trkpt><trkpt lat="45.1222" lon="5.88438"><time>2000-01-01T00:52:09.000Z</time></trkpt><trkpt lat="45.12215" lon="5.88426"><ele>1812</ele><time>2000-01-01T00:52:19.000Z</time></trkpt><trkpt lat="45.12209" lon="5.88409"><time>2000-01-01T00:52:29.000Z</time></trkpt><trkpt lat="45.12205" lon="5.88394"><ele>1811</ele><time>2000-01-01T00:52:39.000Z</time></trkpt><trkpt lat="45.12205" lon="5.88388"><time>2000-01-01T00:52:49.000Z</time></trkpt><trkpt lat="45.12204" lon="5.88379"><time>2000-01-01T00:52:59.000Z</time></trkpt><trkpt lat="45.12206" lon="5.88367"><ele>1808</ele><time>2000-01-01T00:53:09.000Z</time></trkpt><trkpt lat="45.12209" lon="5.88357"><time>2000-01-01T00:53:19.000Z</time></trkpt><trkpt lat="45.1222" lon="5.88324"><ele>1800</ele><time>2000-01-01T00:53:29.000Z</time></trkpt><trkpt lat="45.12219" lon="5.88307"><time>2000-01-01T00:53:39.000Z</time></trkpt><trkpt lat="45.12213" lon="5.88289"><ele>1802</ele><time>2000-01-01T00:53:49.000Z</time></trkpt><trkpt lat="45.12201" lon="5.88265"><ele>1802</ele><time>2000-01-01T00:53:59.000Z</time></trkpt><trkpt lat="45.12195" lon="5.88258"><time>2000-01-01T00:54:09.000Z</time></trkpt><trkpt lat="45.12188" lon="5.88249"><time>2000-01-01T00:54:19.000Z</time></trkpt><trkpt lat="45.12169" lon="5.88228"><ele>1802</ele><time>2000-01-01T00:54:29.000Z</time></trkpt><trkpt lat="45.12168" lon="5.88226"><time>2000-01-01T00:54:39.000Z</time></trkpt><trkpt lat="45.12161" lon="5.88223"><time>2000-01-01T00:54:49.000Z</time></trkpt><trkpt lat="45.12151" lon="5.88216"><ele>1802</ele><time>2000-01-01T00:54:59.000Z</time></trkpt><trkpt lat="45.12143" lon="5.88204"><time>2000-01-01T00:55:09.000Z</time></trkpt><trkpt lat="45.12134" lon="5.88187"><ele>1789</ele><time>2000-01-01T00:55:19.000Z</time></trkpt><trkpt lat="45.12116" lon="5.88172"><ele>1789</ele><time>2000-01-01T00:55:29.000Z</time></trkpt><trkpt lat="45.12106" lon="5.88168"><time>2000-01-01T00:55:39.000Z</time></trkpt><trkpt lat="45.12097" lon="5.88174"><ele>1789</ele><time>2000-01-01T00:55:49.000Z</time></trkpt><trkpt lat="45.12085" lon="5.88172"><time>2000-01-01T00:55:59.000Z</time></trkpt><trkpt lat="45.12078" lon="5.88169"><ele>1789</ele><time>2000-01-01T00:56:09.000Z</time></trkpt><trkpt lat="45.12066" lon="5.88163"><time>2000-01-01T00:56:19.000Z</time></trkpt><trkpt lat="45.12049" lon="5.88167"><ele>1795</ele><time>2000-01-01T00:56:29.000Z</time></trkpt><trkpt lat="45.12041" lon="5.88169"><time>2000-01-01T00:56:39.000Z</time></trkpt><trkpt lat="45.12029" lon="5.88167"><ele>1795</ele><time>2000-01-01T00:56:49.000Z</time></trkpt><trkpt lat="45.12013" lon="5.88164"><time>2000-01-01T00:56:59.000Z</time></trkpt><trkpt lat="45.11999" lon="5.88155"><ele>1795</ele><time>2000-01-01T00:57:09.000Z</time></trkpt><trkpt lat="45.11987" lon="5.88148"><time>2000-01-01T00:57:19.000Z</time></trkpt><trkpt lat="45.11961" lon="5.88131"><ele>1796</ele><time>2000-01-01T00:57:29.000Z</time></trkpt><trkpt lat="45.11937" lon="5.88113"><ele>1796</ele><time>2000-01-01T00:57:39.000Z</time></trkpt><trkpt lat="45.11915" lon="5.88095"><ele>1796</ele><time>2000-01-01T00:57:49.000Z</time></trkpt><trkpt lat="45.11881" lon="5.88067"><ele>1797</ele><time>2000-01-01T00:57:59.000Z</time></trkpt><trkpt lat="45.11863" lon="5.8807"><time>2000-01-01T00:58:09.000Z</time></trkpt><trkpt lat="45.11839" lon="5.88065"><ele>1799</ele><time>2000-01-01T00:58:19.000Z</time></trkpt><trkpt lat="45.11812" lon="5.88064"><ele>1802</ele><time>2000-01-01T00:58:29.000Z</time></trkpt><trkpt lat="45.11804" lon="5.88061"><time>2000-01-01T00:58:39.000Z</time></trkpt><trkpt lat="45.11786" lon="5.88051"><ele>1803</ele><time>2000-01-01T00:58:49.000Z</time></trkpt><trkpt lat="45.1177" lon="5.88036"><ele>1798</ele><time>2000-01-01T00:58:59.000Z</time></trkpt><trkpt lat="45.11757" lon="5.8802"><time>2000-01-01T00:59:09.000Z</time></trkpt><trkpt lat="45.11738" lon="5.87988"><ele>1798</ele><time>2000-01-01T00:59:19.000Z</time></trkpt><trkpt lat="45.11728" lon="5.87975"><time>2000-01-01T00:59:29.000Z</time></trkpt><trkpt lat="45.11708" lon="5.8797"><ele>1798</ele><time>2000-01-01T00:59:39.000Z</time></trkpt><trkpt lat="45.11679" lon="5.87963"><ele>1798</ele><time>2000-01-01T00:59:49.000Z</time></trkpt><trkpt lat="45.11654" lon="5.87958"><ele>1799</ele><time>2000-01-01T00:59:59.000Z</time></trkpt><trkpt lat="45.11633" lon="5.87954"><ele>1799</ele><time>2000-01-01T01:00:09.000Z</time></trkpt><trkpt lat="45.11592" lon="5.87947"><ele>1801</ele><time>2000-01-01T01:00:19.000Z</time></trkpt><trkpt lat="45.11574" lon="5.87944"><time>2000-01-01T01:00:29.000Z</time></trkpt><trkpt lat="45.11542" lon="5.87919"><ele>1803</ele><time>2000-01-01T01:00:39.000Z</time></trkpt><trkpt lat="45.1151" lon="5.87894"><ele>1803</ele><time>2000-01-01T01:00:49.000Z</time></trkpt><trkpt lat="45.11489" lon="5.8789"><ele>1801</ele><time>2000-01-01T01:00:59.000Z</time></trkpt><trkpt lat="45.11467" lon="5.87896"><ele>1801</ele><time>2000-01-01T01:01:09.000Z</time></trkpt><trkpt lat="45.11457" lon="5.87899"><time>2000-01-01T01:01:19.000Z</time></trkpt><trkpt lat="45.11434" lon="5.87898"><ele>1799</ele><time>2000-01-01T01:01:29.000Z</time></trkpt><trkpt lat="45.11392" lon="5.87912"><ele>1799</ele><time>2000-01-01T01:01:39.000Z</time></trkpt><trkpt lat="45.11373" lon="5.87903"><ele>1793</ele><time>2000-01-01T01:01:49.000Z</time></trkpt><trkpt lat="45.11369" lon="5.87901"><time>2000-01-01T01:01:59.000Z</time></trkpt><trkpt lat="45.11364" lon="5.8789"><time>2000-01-01T01:02:09.000Z</time></trkpt><trkpt lat="45.11361" lon="5.87877"><ele>1791</ele><time>2000-01-01T01:02:19.000Z</time></trkpt><trkpt lat="45.11336" lon="5.8787"><ele>1790</ele><time>2000-01-01T01:02:29.000Z</time></trkpt><trkpt lat="45.11322" lon="5.87863"><time>2000-01-01T01:02:39.000Z</time></trkpt><trkpt lat="45.11296" lon="5.8786"><ele>1788</ele><time>2000-01-01T01:02:49.000Z</time></trkpt><trkpt lat="45.11262" lon="5.87857"><ele>1786</ele><time>2000-01-01T01:02:59.000Z</time></trkpt><trkpt lat="45.11238" lon="5.87865"><ele>1780</ele><time>2000-01-01T01:03:09.000Z</time></trkpt><trkpt lat="45.11199" lon="5.87879"><ele>1778</ele><time>2000-01-01T01:03:19.000Z</time></trkpt><trkpt lat="45.11171" lon="5.87886"><ele>1778</ele><time>2000-01-01T01:03:29.000Z</time></trkpt><trkpt lat="45.11156" lon="5.87875"><time>2000-01-01T01:03:39.000Z</time></trkpt><trkpt lat="45.11148" lon="5.87855"><ele>1775</ele><time>2000-01-01T01:03:49.000Z</time></trkpt><trkpt lat="45.11157" lon="5.87812"><ele>1770</ele><time>2000-01-01T01:03:59.000Z</time></trkpt><trkpt lat="45.1117" lon="5.87789"><ele>1768</ele><time>2000-01-01T01:04:09.000Z</time></trkpt><trkpt lat="45.11176" lon="5.87784"><time>2000-01-01T01:04:19.000Z</time></trkpt><trkpt lat="45.11177" lon="5.87782"><time>2000-01-01T01:04:29.000Z</time></trkpt><trkpt lat="45.11174" lon="5.87777"><time>2000-01-01T01:04:39.000Z</time></trkpt><trkpt lat="45.11172" lon="5.87775"><time>2000-01-01T01:04:49.000Z</time></trkpt><trkpt lat="45.1117" lon="5.87773"><time>2000-01-01T01:04:59.000Z</time></trkpt><trkpt lat="45.11167" lon="5.87772"><ele>1768</ele><time>2000-01-01T01:05:09.000Z</time></trkpt><trkpt lat="45.11166" lon="5.87769"><time>2000-01-01T01:05:19.000Z</time></trkpt><trkpt lat="45.11149" lon="5.8776"><ele>1761</ele><time>2000-01-01T01:05:29.000Z</time></trkpt><trkpt lat="45.11147" lon="5.8776"><time>2000-01-01T01:05:39.000Z</time></trkpt><trkpt lat="45.11144" lon="5.87757"><time>2000-01-01T01:05:49.000Z</time></trkpt><trkpt lat="45.11142" lon="5.87755"><time>2000-01-01T01:05:59.000Z</time></trkpt><trkpt lat="45.11139" lon="5.87754"><time>2000-01-01T01:06:09.000Z</time></trkpt><trkpt lat="45.11136" lon="5.8775"><time>2000-01-01T01:06:19.000Z</time></trkpt><trkpt lat="45.11131" lon="5.87746"><ele>1761</ele><time>2000-01-01T01:06:29.000Z</time></trkpt><trkpt lat="45.11127" lon="5.87737"><time>2000-01-01T01:06:39.000Z</time></trkpt><trkpt lat="45.11126" lon="5.87731"><time>2000-01-01T01:06:49.000Z</time></trkpt><trkpt lat="45.11124" lon="5.87725"><time>2000-01-01T01:06:59.000Z</time></trkpt><trkpt lat="45.11126" lon="5.87716"><ele>1754</ele><time>2000-01-01T01:07:09.000Z</time></trkpt><trkpt lat="45.11122" lon="5.87706"><time>2000-01-01T01:07:19.000Z</time></trkpt><trkpt lat="45.11125" lon="5.87704"><time>2000-01-01T01:07:29.000Z</time></trkpt><trkpt lat="45.11125" lon="5.87694"><time>2000-01-01T01:07:39.000Z</time></trkpt><trkpt lat="45.11129" lon="5.87688"><ele>1748</ele><time>2000-01-01T01:07:49.000Z</time></trkpt><trkpt lat="45.11127" lon="5.87683"><time>2000-01-01T01:07:59.000Z</time></trkpt><trkpt lat="45.11126" lon="5.87678"><time>2000-01-01T01:08:09.000Z</time></trkpt><trkpt lat="45.11125" lon="5.87676"><time>2000-01-01T01:08:19.000Z</time></trkpt><trkpt lat="45.11122" lon="5.87675"><time>2000-01-01T01:08:29.000Z</time></trkpt><trkpt lat="45.11122" lon="5.87674"><time>2000-01-01T01:08:39.000Z</time></trkpt><trkpt lat="45.11124" lon="5.87669"><time>2000-01-01T01:08:49.000Z</time></trkpt><trkpt lat="45.11123" lon="5.87665"><ele>1748</ele><time>2000-01-01T01:08:59.000Z</time></trkpt><trkpt lat="45.11123" lon="5.87657"><time>2000-01-01T01:09:09.000Z</time></trkpt><trkpt lat="45.11116" lon="5.87651"><time>2000-01-01T01:09:19.000Z</time></trkpt><trkpt lat="45.11111" lon="5.87646"><ele>1742</ele><time>2000-01-01T01:09:29.000Z</time></trkpt><trkpt lat="45.11107" lon="5.87638"><time>2000-01-01T01:09:39.000Z</time></trkpt><trkpt lat="45.11109" lon="5.87596"><ele>1737</ele><time>2000-01-01T01:09:49.000Z</time></trkpt><trkpt lat="45.11085" lon="5.87593"><ele>1736</ele><time>2000-01-01T01:09:59.000Z</time></trkpt><trkpt lat="45.11057" lon="5.87585"><ele>1736</ele><time>2000-01-01T01:10:09.000Z</time></trkpt><trkpt lat="45.11041" lon="5.87574"><time>2000-01-01T01:10:19.000Z</time></trkpt><trkpt lat="45.1106" lon="5.87555"><ele>1732</ele><time>2000-01-01T01:10:29.000Z</time></trkpt><trkpt lat="45.11083" lon="5.87537"><ele>1729</ele><time>2000-01-01T01:10:39.000Z</time></trkpt><trkpt lat="45.11079" lon="5.87523"><time>2000-01-01T01:10:49.000Z</time></trkpt><trkpt lat="45.11079" lon="5.87506"><ele>1726</ele><time>2000-01-01T01:10:59.000Z</time></trkpt><trkpt lat="45.11084" lon="5.87499"><time>2000-01-01T01:11:09.000Z</time></trkpt><trkpt lat="45.11102" lon="5.87501"><ele>1723</ele><time>2000-01-01T01:11:19.000Z</time></trkpt><trkpt lat="45.11121" lon="5.87495"><ele>1723</ele><time>2000-01-01T01:11:29.000Z</time></trkpt><trkpt lat="45.11149" lon="5.87488"><ele>1713</ele><time>2000-01-01T01:11:39.000Z</time></trkpt><trkpt lat="45.11158" lon="5.87486"><time>2000-01-01T01:11:49.000Z</time></trkpt><trkpt lat="45.11158" lon="5.87459"><ele>1708</ele><time>2000-01-01T01:11:59.000Z</time></trkpt><trkpt lat="45.11169" lon="5.87458"><time>2000-01-01T01:12:09.000Z</time></trkpt><trkpt lat="45.11172" lon="5.87452"><time>2000-01-01T01:12:19.000Z</time></trkpt><trkpt lat="45.11153" lon="5.87439"><ele>1709</ele><time>2000-01-01T01:12:29.000Z</time></trkpt><trkpt lat="45.11155" lon="5.87434"><time>2000-01-01T01:12:39.000Z</time></trkpt><trkpt lat="45.1116" lon="5.87433"><time>2000-01-01T01:12:49.000Z</time></trkpt><trkpt lat="45.11195" lon="5.87405"><ele>1707</ele><time>2000-01-01T01:12:59.000Z</time></trkpt><trkpt lat="45.11224" lon="5.87403"><ele>1706</ele><time>2000-01-01T01:13:09.000Z</time></trkpt><trkpt lat="45.1126" lon="5.8741"><ele>1704</ele><time>2000-01-01T01:13:19.000Z</time></trkpt><trkpt lat="45.11272" lon="5.87412"><time>2000-01-01T01:13:29.000Z</time></trkpt><trkpt lat="45.11313" lon="5.87409"><ele>1696</ele><time>2000-01-01T01:13:39.000Z</time></trkpt><trkpt lat="45.11321" lon="5.87407"><time>2000-01-01T01:13:49.000Z</time></trkpt><trkpt lat="45.11347" lon="5.87398"><ele>1692</ele><time>2000-01-01T01:13:59.000Z</time></trkpt><trkpt lat="45.11375" lon="5.8738"><ele>1687</ele><time>2000-01-01T01:14:09.000Z</time></trkpt><trkpt lat="45.11399" lon="5.87364"><ele>1685</ele><time>2000-01-01T01:14:19.000Z</time></trkpt><trkpt lat="45.11422" lon="5.87348"><ele>1686</ele><time>2000-01-01T01:14:29.000Z</time></trkpt><trkpt lat="45.11448" lon="5.8732"><ele>1680</ele><time>2000-01-01T01:14:39.000Z</time></trkpt><trkpt lat="45.11472" lon="5.87295"><ele>1678</ele><time>2000-01-01T01:14:49.000Z</time></trkpt><trkpt lat="45.11493" lon="5.87278"><ele>1676</ele><time>2000-01-01T01:14:59.000Z</time></trkpt><trkpt lat="45.11507" lon="5.87244"><ele>1666</ele><time>2000-01-01T01:15:09.000Z</time></trkpt><trkpt lat="45.11528" lon="5.87194"><ele>1659</ele><time>2000-01-01T01:15:19.000Z</time></trkpt><trkpt lat="45.11544" lon="5.87181"><time>2000-01-01T01:15:29.000Z</time></trkpt><trkpt lat="45.11561" lon="5.87169"><ele>1657</ele><time>2000-01-01T01:15:39.000Z</time></trkpt><trkpt lat="45.11564" lon="5.87167"><time>2000-01-01T01:15:49.000Z</time></trkpt><trkpt lat="45.11574" lon="5.87155"><time>2000-01-01T01:15:59.000Z</time></trkpt><trkpt lat="45.11586" lon="5.87166"><ele>1657</ele><time>2000-01-01T01:16:09.000Z</time></trkpt><trkpt lat="45.11607" lon="5.87182"><ele>1663</ele><time>2000-01-01T01:16:19.000Z</time></trkpt><trkpt lat="45.11618" lon="5.87191"><time>2000-01-01T01:16:29.000Z</time></trkpt><trkpt lat="45.11627" lon="5.87204"><ele>1670</ele><time>2000-01-01T01:16:39.000Z</time></trkpt><trkpt lat="45.11639" lon="5.87223"><time>2000-01-01T01:16:49.000Z</time></trkpt><trkpt lat="45.11645" lon="5.87233"><ele>1675</ele><time>2000-01-01T01:16:59.000Z</time></trkpt><trkpt lat="45.11665" lon="5.87248"><ele>1681</ele><time>2000-01-01T01:17:09.000Z</time></trkpt><trkpt lat="45.11704" lon="5.87279"><ele>1676</ele><time>2000-01-01T01:17:19.000Z</time></trkpt><trkpt lat="45.11743" lon="5.87314"><ele>1677</ele><time>2000-01-01T01:17:29.000Z</time></trkpt><trkpt lat="45.11756" lon="5.87343"><ele>1676</ele><time>2000-01-01T01:17:39.000Z</time></trkpt><trkpt lat="45.11771" lon="5.8738"><ele>1676</ele><time>2000-01-01T01:17:49.000Z</time></trkpt><trkpt lat="45.11778" lon="5.87399"><time>2000-01-01T01:17:59.000Z</time></trkpt><trkpt lat="45.1178" lon="5.87404"><ele>1676</ele><time>2000-01-01T01:18:09.000Z</time></trkpt><trkpt lat="45.11789" lon="5.87418"><time>2000-01-01T01:18:19.000Z</time></trkpt><trkpt lat="45.11792" lon="5.87422"><time>2000-01-01T01:18:29.000Z</time></trkpt><trkpt lat="45.11823" lon="5.87441"><ele>1674</ele><time>2000-01-01T01:18:39.000Z</time></trkpt><trkpt lat="45.11851" lon="5.87458"><ele>1680</ele><time>2000-01-01T01:18:49.000Z</time></trkpt><trkpt lat="45.11871" lon="5.87477"><ele>1686</ele><time>2000-01-01T01:18:59.000Z</time></trkpt><trkpt lat="45.11876" lon="5.87488"><time>2000-01-01T01:19:09.000Z</time></trkpt><trkpt lat="45.11883" lon="5.87496"><time>2000-01-01T01:19:19.000Z</time></trkpt><trkpt lat="45.1189" lon="5.87502"><ele>1681</ele><time>2000-01-01T01:19:29.000Z</time></trkpt><trkpt lat="45.11899" lon="5.87506"><time>2000-01-01T01:19:39.000Z</time></trkpt><trkpt lat="45.11911" lon="5.87511"><ele>1684</ele><time>2000-01-01T01:19:49.000Z</time></trkpt><trkpt lat="45.11935" lon="5.87522"><ele>1678</ele><time>2000-01-01T01:19:59.000Z</time></trkpt><trkpt lat="45.11945" lon="5.87527"><time>2000-01-01T01:20:09.000Z</time></trkpt><trkpt lat="45.11955" lon="5.87539"><ele>1673</ele><time>2000-01-01T01:20:19.000Z</time></trkpt><trkpt lat="45.11962" lon="5.87549"><time>2000-01-01T01:20:29.000Z</time></trkpt><trkpt lat="45.11972" lon="5.87553"><ele>1670</ele><time>2000-01-01T01:20:39.000Z</time></trkpt><trkpt lat="45.11983" lon="5.87551"><time>2000-01-01T01:20:49.000Z</time></trkpt><trkpt lat="45.11994" lon="5.87547"><ele>1652</ele><time>2000-01-01T01:20:59.000Z</time></trkpt><trkpt lat="45.12013" lon="5.87539"><ele>1652</ele><time>2000-01-01T01:21:09.000Z</time></trkpt><trkpt lat="45.12026" lon="5.87536"><time>2000-01-01T01:21:19.000Z</time></trkpt><trkpt lat="45.12035" lon="5.87529"><ele>1650</ele><time>2000-01-01T01:21:29.000Z</time></trkpt><trkpt lat="45.12045" lon="5.87528"><time>2000-01-01T01:21:39.000Z</time></trkpt><trkpt lat="45.12061" lon="5.87531"><ele>1650</ele><time>2000-01-01T01:21:49.000Z</time></trkpt><trkpt lat="45.12074" lon="5.87538"><time>2000-01-01T01:21:59.000Z</time></trkpt><trkpt lat="45.12094" lon="5.87557"><ele>1656</ele><time>2000-01-01T01:22:09.000Z</time></trkpt><trkpt lat="45.12116" lon="5.8758"><ele>1665</ele><time>2000-01-01T01:22:19.000Z</time></trkpt><trkpt lat="45.12147" lon="5.87612"><ele>1665</ele><time>2000-01-01T01:22:29.000Z</time></trkpt><trkpt lat="45.12169" lon="5.87636"><ele>1662</ele><time>2000-01-01T01:22:39.000Z</time></trkpt><trkpt lat="45.12199" lon="5.8767"><ele>1661</ele><time>2000-01-01T01:22:49.000Z</time></trkpt><trkpt lat="45.12235" lon="5.87705"><ele>1661</ele><time>2000-01-01T01:22:59.000Z</time></trkpt><trkpt lat="45.12252" lon="5.87719"><ele>1653</ele><time>2000-01-01T01:23:09.000Z</time></trkpt><trkpt lat="45.1228" lon="5.87725"><ele>1649</ele><time>2000-01-01T01:23:19.000Z</time></trkpt><trkpt lat="45.12291" lon="5.87727"><time>2000-01-01T01:23:29.000Z</time></trkpt><trkpt lat="45.12314" lon="5.87726"><ele>1645</ele><time>2000-01-01T01:23:39.000Z</time></trkpt><trkpt lat="45.12315" lon="5.87728"><ele>1645</ele><time>2000-01-01T01:23:49.000Z</time></trkpt></trkseg></trk></gpx>